createdAt,value
2018-04-29T00:00:03.743Z,18.21
2018-04-29T00:02:31.430Z,18.23
2018-04-29T00:04:59.037Z,18.24
2018-04-29T00:07:26.705Z,18.26
2018-04-29T00:09:54.260Z,18.29
2018-04-29T00:12:21.947Z,18.25
2018-04-29T00:14:49.512Z,18.26
2018-04-29T00:17:17.378Z,18.30
2018-04-29T00:19:44.987Z,18.26
2018-04-29T00:22:12.716Z,18.23
2018-04-29T00:24:40.284Z,18.22
2018-04-29T00:27:08.024Z,18.18
2018-04-29T00:29:35.769Z,18.12
2018-04-29T00:32:03.326Z,18.13
2018-04-29T00:34:30.886Z,18.09
2018-04-29T00:36:58.448Z,18.07
2018-04-29T00:39:26.232Z,18.08
2018-04-29T00:41:53.840Z,18.06
2018-04-29T00:44:21.467Z,18.04
2018-04-29T00:46:49.195Z,18.07
2018-04-29T00:49:17.014Z,18.07
2018-04-29T00:51:56.408Z,18.04
2018-04-29T00:54:23.978Z,18.02
2018-04-29T00:56:51.562Z,17.96
2018-04-29T00:59:19.378Z,17.93
2018-04-29T01:01:46.966Z,17.89
2018-04-29T01:04:14.529Z,17.85
2018-04-29T01:06:42.112Z,17.82
2018-04-29T01:09:09.900Z,17.84
2018-04-29T01:11:37.613Z,17.81
2018-04-29T01:14:05.216Z,17.77
2018-04-29T01:16:32.953Z,17.72
2018-04-29T01:19:00.553Z,17.66
2018-04-29T01:21:28.112Z,17.74
2018-04-29T01:23:55.724Z,17.74
2018-04-29T01:26:23.289Z,17.72
2018-04-29T01:28:50.963Z,17.69
2018-04-29T01:31:18.525Z,17.66
2018-04-29T01:33:46.084Z,17.61
2018-04-29T01:36:13.673Z,17.49
2018-04-29T01:38:41.417Z,17.33
2018-04-29T01:41:09.235Z,17.17
2018-04-29T01:43:37.052Z,17.03
2018-04-29T01:46:04.652Z,16.93
2018-04-29T01:48:32.271Z,16.86
2018-04-29T01:50:59.925Z,16.79
2018-04-29T01:53:27.496Z,16.75
2018-04-29T01:55:55.322Z,16.71
2018-04-29T01:58:22.908Z,16.65
2018-04-29T02:00:51.201Z,16.60
2018-04-29T02:03:18.760Z,16.53
2018-04-29T02:05:46.496Z,16.50
2018-04-29T02:08:14.079Z,16.43
2018-04-29T02:10:41.658Z,16.36
2018-04-29T02:13:09.366Z,16.32
2018-04-29T02:15:37.090Z,16.21
2018-04-29T02:18:04.910Z,16.20
2018-04-29T02:20:32.727Z,16.17
2018-04-29T02:23:00.547Z,16.12
2018-04-29T02:25:28.156Z,16.14
2018-04-29T02:27:55.774Z,16.07
2018-04-29T02:30:23.333Z,16.06
2018-04-29T02:32:51.123Z,16.06
2018-04-29T02:35:18.853Z,15.92
2018-04-29T02:37:46.655Z,15.92
2018-04-29T02:40:14.234Z,15.84
2018-04-29T02:42:41.991Z,15.78
2018-04-29T02:45:09.701Z,15.72
2018-04-29T02:47:37.241Z,15.59
2018-04-29T02:50:05.053Z,15.56
2018-04-29T02:52:32.865Z,15.57
2018-04-29T02:55:00.598Z,15.55
2018-04-29T02:57:28.203Z,15.52
2018-04-29T02:59:56.020Z,15.45
2018-04-29T03:02:23.658Z,15.49
2018-04-29T03:04:51.281Z,15.48
2018-04-29T03:07:18.841Z,15.54
2018-04-29T03:09:46.418Z,15.53
2018-04-29T03:12:14.106Z,15.52
2018-04-29T03:14:42.110Z,15.49
2018-04-29T03:17:09.749Z,15.38
2018-04-29T03:19:37.402Z,15.41
2018-04-29T03:22:05.035Z,15.43
2018-04-29T03:24:32.610Z,15.41
2018-04-29T03:27:00.332Z,15.38
2018-04-29T03:29:28.141Z,15.44
2018-04-29T03:31:55.720Z,15.56
2018-04-29T03:34:23.292Z,15.64
2018-04-29T03:36:51.091Z,15.62
2018-04-29T03:39:18.911Z,15.56
2018-04-29T03:41:46.555Z,15.45
2018-04-29T03:44:14.347Z,15.40
2018-04-29T03:46:42.023Z,15.29
2018-04-29T03:49:09.576Z,15.25
2018-04-29T03:51:37.193Z,15.16
2018-04-29T03:54:05.020Z,15.11
2018-04-29T03:56:32.838Z,15.11
2018-04-29T03:59:12.070Z,15.16
2018-04-29T04:01:51.733Z,15.23
2018-04-29T04:04:19.356Z,15.20
2018-04-29T04:06:46.931Z,15.24
2018-04-29T04:09:14.564Z,15.26
2018-04-29T04:11:42.220Z,15.28
2018-04-29T04:14:09.821Z,15.36
2018-04-29T04:16:37.444Z,15.41
2018-04-29T04:19:05.125Z,15.46
2018-04-29T04:21:32.740Z,15.57
2018-04-29T04:24:00.353Z,15.67
2018-04-29T04:26:28.139Z,15.76
2018-04-29T04:28:55.703Z,15.81
2018-04-29T04:31:23.397Z,15.83
2018-04-29T04:33:51.020Z,15.82
2018-04-29T04:36:18.597Z,15.86
2018-04-29T04:38:46.349Z,15.82
2018-04-29T04:41:14.152Z,15.80
2018-04-29T04:43:41.964Z,15.85
2018-04-29T04:46:09.613Z,15.96
2018-04-29T04:48:37.194Z,16.10
2018-04-29T04:51:04.725Z,16.22
2018-04-29T04:53:32.289Z,16.29
2018-04-29T04:55:59.875Z,16.38
2018-04-29T04:58:27.654Z,16.47
2018-04-29T05:00:55.241Z,16.48
2018-04-29T05:03:22.997Z,16.49
2018-04-29T05:05:50.560Z,16.44
2018-04-29T05:08:18.236Z,16.53
2018-04-29T05:10:46.064Z,16.63
2018-04-29T05:13:13.700Z,16.83
2018-04-29T05:15:41.391Z,17.38
2018-04-29T05:18:09.155Z,18.09
2018-04-29T05:20:36.728Z,18.83
2018-04-29T05:23:04.479Z,19.67
2018-04-29T05:25:32.051Z,20.35
2018-04-29T05:27:59.702Z,21.27
2018-04-29T05:30:27.280Z,22.20
2018-04-29T05:32:54.845Z,23.16
2018-04-29T05:35:22.445Z,23.72
2018-04-29T05:37:50.162Z,24.14
2018-04-29T05:40:17.804Z,24.78
2018-04-29T05:42:45.599Z,25.07
2018-04-29T05:45:13.228Z,25.52
2018-04-29T05:47:40.841Z,26.21
2018-04-29T05:50:08.396Z,26.73
2018-04-29T05:52:35.948Z,27.20
2018-04-29T05:55:03.605Z,27.47
2018-04-29T05:57:31.174Z,27.30
2018-04-29T05:59:58.925Z,27.48
2018-04-29T06:02:26.748Z,28.09
2018-04-29T06:04:54.353Z,28.56
2018-04-29T06:07:21.979Z,28.49
2018-04-29T06:09:49.531Z,28.94
2018-04-29T06:12:17.082Z,29.93
2018-04-29T06:14:44.713Z,31.27
2018-04-29T06:17:12.274Z,31.54
2018-04-29T06:19:40.071Z,31.98
2018-04-29T06:22:07.889Z,31.88
2018-04-29T06:24:35.609Z,31.25
2018-04-29T06:27:03.228Z,31.22
2018-04-29T06:29:31.047Z,30.79
2018-04-29T06:31:58.694Z,31.30
2018-04-29T06:34:26.243Z,32.08
2018-04-29T06:36:53.959Z,32.06
2018-04-29T06:39:21.561Z,32.07
2018-04-29T06:41:49.118Z,32.03
2018-04-29T06:44:16.798Z,32.01
2018-04-29T06:46:44.339Z,31.75
2018-04-29T06:49:11.947Z,31.65
2018-04-29T06:51:39.541Z,32.01
2018-04-29T06:54:07.324Z,32.42
2018-04-29T06:56:35.142Z,32.87
2018-04-29T06:59:02.717Z,33.00
2018-04-29T07:01:30.583Z,32.47
2018-04-29T07:03:58.398Z,32.38
2018-04-29T07:06:26.091Z,32.25
2018-04-29T07:08:53.937Z,32.18
2018-04-29T07:11:21.708Z,32.45
2018-04-29T07:13:49.339Z,32.82
2018-04-29T07:16:16.912Z,32.39
2018-04-29T07:18:44.752Z,32.14
2018-04-29T07:21:12.451Z,32.46
2018-04-29T07:23:40.031Z,32.25
2018-04-29T07:26:07.795Z,32.26
2018-04-29T07:28:35.336Z,32.21
2018-04-29T07:31:02.933Z,32.23
2018-04-29T07:33:30.939Z,32.07
2018-04-29T07:35:58.737Z,32.21
2018-04-29T07:38:26.653Z,32.43
2018-04-29T07:40:54.476Z,32.89
2018-04-29T07:43:22.398Z,32.69
2018-04-29T07:45:50.212Z,32.95
2018-04-29T07:48:17.850Z,33.16
2018-04-29T07:50:45.439Z,32.83
2018-04-29T07:53:13.056Z,32.52
2018-04-29T07:55:40.637Z,32.50
2018-04-29T07:58:08.586Z,32.72
2018-04-29T08:00:36.321Z,33.32
2018-04-29T08:03:03.979Z,33.33
2018-04-29T08:05:31.528Z,32.90
2018-04-29T08:07:59.241Z,32.92
2018-04-29T08:10:26.885Z,32.86
2018-04-29T08:12:54.445Z,32.91
2018-04-29T08:15:22.028Z,33.34
2018-04-29T08:17:49.686Z,33.25
2018-04-29T08:20:17.244Z,33.43
2018-04-29T08:22:44.875Z,33.71
2018-04-29T08:25:12.447Z,33.61
2018-04-29T08:27:40.219Z,33.84
2018-04-29T08:30:07.945Z,33.67
2018-04-29T08:32:35.580Z,33.97
2018-04-29T08:35:03.205Z,33.99
2018-04-29T08:37:30.755Z,33.82
2018-04-29T08:39:58.513Z,33.70
2018-04-29T08:42:26.081Z,33.61
2018-04-29T08:44:53.638Z,33.25
2018-04-29T08:47:21.464Z,32.84
2018-04-29T08:49:49.028Z,32.99
2018-04-29T08:52:16.602Z,33.02
2018-04-29T08:54:44.188Z,33.24
2018-04-29T08:57:11.740Z,33.28
2018-04-29T08:59:39.364Z,33.32
2018-04-29T09:02:06.937Z,33.58
2018-04-29T09:04:35.355Z,33.42
2018-04-29T09:07:02.955Z,33.68
2018-04-29T09:09:30.515Z,33.39
2018-04-29T09:11:58.448Z,33.41
2018-04-29T09:14:26.004Z,33.29
2018-04-29T09:16:53.857Z,33.56
2018-04-29T09:19:21.393Z,33.70
2018-04-29T09:21:48.958Z,33.64
2018-04-29T09:24:16.681Z,33.34
2018-04-29T09:26:44.255Z,33.51
2018-04-29T09:29:12.076Z,33.64
2018-04-29T09:31:39.732Z,33.94
2018-04-29T09:34:07.405Z,34.26
2018-04-29T09:36:34.993Z,33.44
2018-04-29T09:39:02.540Z,32.77
2018-04-29T09:41:30.105Z,32.87
2018-04-29T09:43:57.743Z,33.25
2018-04-29T09:46:25.329Z,33.30
2018-04-29T09:48:53.025Z,33.56
2018-04-29T09:51:20.589Z,33.58
2018-04-29T09:53:48.152Z,33.84
2018-04-29T09:56:15.722Z,34.02
2018-04-29T09:58:43.273Z,34.34
2018-04-29T10:01:16.563Z,34.41
2018-04-29T10:03:44.345Z,34.25
2018-04-29T10:06:11.941Z,33.93
2018-04-29T10:08:39.500Z,33.86
2018-04-29T10:11:07.088Z,33.95
2018-04-29T10:13:34.747Z,33.75
2018-04-29T10:16:02.537Z,33.85
2018-04-29T10:18:30.101Z,34.07
2018-04-29T10:20:57.871Z,34.22
2018-04-29T10:23:25.420Z,34.28
2018-04-29T10:25:53.035Z,34.42
2018-04-29T10:28:20.829Z,34.33
2018-04-29T10:30:48.396Z,34.74
2018-04-29T10:33:16.053Z,34.77
2018-04-29T10:35:43.623Z,34.56
2018-04-29T10:38:11.241Z,34.40
2018-04-29T10:40:38.805Z,34.09
2018-04-29T10:43:06.420Z,33.73
2018-04-29T10:45:34.053Z,33.78
2018-04-29T10:48:01.606Z,33.75
2018-04-29T10:50:29.231Z,33.88
2018-04-29T10:52:56.788Z,33.53
2018-04-29T10:55:24.467Z,33.28
2018-04-29T10:57:52.285Z,33.32
2018-04-29T11:00:19.820Z,33.24
2018-04-29T11:02:47.477Z,33.00
2018-04-29T11:05:15.033Z,32.91
2018-04-29T11:07:42.604Z,32.90
2018-04-29T11:10:10.356Z,32.78
2018-04-29T11:12:37.908Z,32.86
2018-04-29T11:15:05.714Z,32.93
2018-04-29T11:17:33.272Z,32.92
2018-04-29T11:20:01.050Z,32.92
2018-04-29T11:22:28.671Z,32.52
2018-04-29T11:24:56.262Z,31.91
2018-04-29T11:27:23.980Z,31.94
2018-04-29T11:29:51.601Z,32.08
2018-04-29T11:32:19.166Z,32.13
2018-04-29T11:34:46.727Z,32.21
2018-04-29T11:37:14.280Z,32.34
2018-04-29T11:39:42.092Z,32.58
2018-04-29T11:42:09.660Z,32.33
2018-04-29T11:44:37.429Z,32.02
2018-04-29T11:47:04.992Z,32.06
2018-04-29T11:49:32.541Z,31.81
2018-04-29T11:52:00.174Z,31.77
2018-04-29T11:54:27.770Z,31.78
2018-04-29T11:56:55.518Z,31.89
2018-04-29T11:59:23.337Z,31.92
2018-04-29T12:01:50.946Z,31.69
2018-04-29T12:04:18.545Z,31.14
2018-04-29T12:06:46.086Z,30.71
2018-04-29T12:09:13.632Z,30.64
2018-04-29T12:11:41.427Z,30.86
2018-04-29T12:14:08.980Z,31.08
2018-04-29T12:16:36.617Z,31.32
2018-04-29T12:19:04.382Z,31.27
2018-04-29T12:21:31.940Z,30.96
2018-04-29T12:23:59.508Z,30.93
2018-04-29T12:26:27.336Z,31.01
2018-04-29T12:28:54.950Z,30.98
2018-04-29T12:31:22.522Z,30.82
2018-04-29T12:33:50.109Z,30.34
2018-04-29T12:36:17.678Z,30.24
2018-04-29T12:38:45.250Z,30.16
2018-04-29T12:41:13.043Z,30.00
2018-04-29T12:43:40.651Z,30.09
2018-04-29T12:46:08.480Z,30.04
2018-04-29T12:48:36.041Z,30.14
2018-04-29T12:51:03.625Z,30.20
2018-04-29T12:53:31.244Z,30.09
2018-04-29T12:55:58.830Z,29.68
2018-04-29T12:58:26.455Z,29.44
2018-04-29T13:00:54.001Z,29.38
2018-04-29T13:03:21.805Z,29.53
2018-04-29T13:05:49.625Z,29.49
2018-04-29T13:08:17.181Z,29.57
2018-04-29T13:10:44.736Z,29.53
2018-04-29T13:13:12.297Z,29.24
2018-04-29T13:15:39.865Z,29.10
2018-04-29T13:18:07.485Z,29.18
2018-04-29T13:20:35.051Z,29.30
2018-04-29T13:23:02.623Z,29.39
2018-04-29T13:25:30.245Z,29.48
2018-04-29T13:27:57.803Z,29.23
2018-04-29T13:30:25.412Z,29.14
2018-04-29T13:32:52.986Z,29.38
2018-04-29T13:35:20.619Z,29.38
2018-04-29T13:37:48.254Z,29.26
2018-04-29T13:40:15.811Z,29.41
2018-04-29T13:42:43.435Z,29.55
2018-04-29T13:45:11.000Z,29.52
2018-04-29T13:47:38.723Z,29.50
2018-04-29T13:50:06.546Z,29.46
2018-04-29T13:52:34.160Z,29.24
2018-04-29T13:55:01.785Z,29.39
2018-04-29T13:57:29.501Z,29.26
2018-04-29T13:59:57.322Z,29.13
2018-04-29T14:02:24.944Z,28.99
2018-04-29T14:04:52.597Z,28.89
2018-04-29T14:07:20.234Z,29.02
2018-04-29T14:09:47.840Z,29.15
2018-04-29T14:12:15.527Z,28.74
2018-04-29T14:14:43.092Z,28.54
2018-04-29T14:17:10.649Z,28.57
2018-04-29T14:19:38.465Z,28.67
2018-04-29T14:22:06.040Z,28.75
2018-04-29T14:24:33.791Z,28.82
2018-04-29T14:27:01.521Z,29.01
2018-04-29T14:29:29.081Z,29.07
2018-04-29T14:31:56.692Z,28.98
2018-04-29T14:34:24.362Z,28.92
2018-04-29T14:36:51.929Z,28.81
2018-04-29T14:39:19.680Z,28.77
2018-04-29T14:41:47.556Z,28.55
2018-04-29T14:44:15.511Z,28.11
2018-04-29T14:46:43.091Z,28.03
2018-04-29T14:49:10.783Z,28.02
2018-04-29T14:51:38.901Z,27.94
2018-04-29T14:54:07.228Z,27.72
2018-04-29T14:56:34.833Z,27.79
2018-04-29T14:59:02.589Z,27.83
2018-04-29T15:01:30.350Z,27.76
2018-04-29T15:03:57.991Z,27.67
2018-04-29T15:06:25.564Z,27.53
2018-04-29T15:08:53.152Z,27.34
2018-04-29T15:11:20.728Z,27.29
2018-04-29T15:13:48.498Z,27.41
2018-04-29T15:16:16.317Z,27.51
2018-04-29T15:18:55.748Z,27.47
2018-04-29T15:21:23.365Z,27.58
2018-04-29T15:23:50.931Z,27.73
2018-04-29T15:26:18.500Z,27.84
2018-04-29T15:28:46.941Z,27.89
2018-04-29T15:31:14.496Z,27.96
2018-04-29T15:33:42.104Z,27.84
2018-04-29T15:36:10.567Z,27.74
2018-04-29T15:38:39.813Z,27.65
2018-04-29T15:41:07.551Z,27.56
2018-04-29T15:43:35.272Z,27.56
2018-04-29T15:46:03.440Z,27.45
2018-04-29T15:48:31.000Z,27.26
2018-04-29T15:50:58.599Z,27.17
2018-04-29T15:53:26.159Z,27.11
2018-04-29T15:55:53.727Z,26.84
2018-04-29T15:58:21.580Z,26.61
2018-04-29T16:00:49.139Z,26.53
2018-04-29T16:03:16.924Z,26.50
2018-04-29T16:05:44.732Z,26.43
2018-04-29T16:08:12.311Z,26.38
2018-04-29T16:10:40.141Z,26.26
2018-04-29T16:13:07.848Z,26.16
2018-04-29T16:15:35.448Z,25.95
2018-04-29T16:18:02.989Z,25.72
2018-04-29T16:20:30.548Z,25.55
2018-04-29T16:22:58.359Z,25.40
2018-04-29T16:25:25.921Z,25.28
2018-04-29T16:27:53.701Z,25.15
2018-04-29T16:30:21.279Z,25.00
2018-04-29T16:32:48.840Z,24.76
2018-04-29T16:35:16.649Z,24.61
2018-04-29T16:37:44.467Z,24.37
2018-04-29T16:40:12.020Z,24.21
2018-04-29T16:42:39.777Z,24.06
2018-04-29T16:45:07.352Z,23.92
2018-04-29T16:47:34.968Z,23.79
2018-04-29T16:50:02.636Z,23.68
2018-04-29T16:52:30.275Z,23.64
2018-04-29T16:54:57.844Z,23.54
2018-04-29T16:57:25.612Z,23.44
2018-04-29T16:59:53.374Z,23.30
2018-04-29T17:02:20.930Z,23.09
2018-04-29T17:04:48.480Z,22.86
2018-04-29T17:07:16.288Z,22.70
2018-04-29T17:09:43.845Z,22.64
2018-04-29T17:12:11.468Z,22.54
2018-04-29T17:14:39.032Z,22.40
2018-04-29T17:17:06.684Z,22.33
2018-04-29T17:19:34.476Z,22.24
2018-04-29T17:22:02.055Z,22.18
2018-04-29T17:24:29.889Z,22.14
2018-04-29T17:26:57.448Z,22.07
2018-04-29T17:29:25.067Z,21.91
2018-04-29T17:31:52.609Z,21.81
2018-04-29T17:34:20.484Z,21.78
2018-04-29T17:36:48.172Z,21.66
2018-04-29T17:39:15.762Z,21.65
2018-04-29T17:41:44.041Z,21.56
2018-04-29T17:44:12.462Z,21.50
2018-04-29T17:46:40.075Z,21.41
2018-04-29T17:49:08.236Z,21.33
2018-04-29T17:51:36.019Z,21.29
2018-04-29T17:54:03.680Z,21.21
2018-04-29T17:56:31.455Z,21.13
2018-04-29T17:58:59.031Z,21.07
2018-04-29T18:01:26.972Z,20.95
2018-04-29T18:03:54.710Z,20.78
2018-04-29T18:06:22.254Z,20.74
2018-04-29T18:08:50.047Z,20.65
2018-04-29T18:11:18.057Z,20.60
2018-04-29T18:13:45.674Z,20.54
2018-04-29T18:16:13.502Z,20.43
2018-04-29T18:18:41.061Z,20.39
2018-04-29T18:21:09.253Z,20.32
2018-04-29T18:23:37.360Z,20.25
2018-04-29T18:26:04.996Z,20.18
2018-04-29T18:28:32.564Z,20.11
2018-04-29T18:31:00.245Z,20.05
2018-04-29T18:33:27.837Z,19.89
2018-04-29T18:35:55.394Z,19.88
2018-04-29T18:38:24.149Z,19.79
2018-04-29T18:40:51.777Z,19.73
2018-04-29T18:43:19.401Z,19.66
2018-04-29T18:45:47.006Z,19.61
2018-04-29T18:48:15.448Z,19.54
2018-04-29T18:50:43.252Z,19.50
2018-04-29T18:53:10.971Z,19.53
2018-04-29T18:55:38.693Z,19.48
2018-04-29T18:58:06.316Z,19.36
2018-04-29T19:00:33.872Z,19.30
2018-04-29T19:03:01.707Z,19.21
2018-04-29T19:05:41.118Z,19.18
2018-04-29T19:08:08.903Z,19.10
2018-04-29T19:10:36.606Z,19.09
2018-04-29T19:13:04.660Z,19.06
2018-04-29T19:15:32.280Z,19.05
2018-04-29T19:18:00.125Z,19.02
2018-04-29T19:20:27.822Z,18.97
2018-04-29T19:22:55.646Z,18.93
2018-04-29T19:25:23.200Z,18.89
2018-04-29T19:27:50.777Z,18.81
2018-04-29T19:30:18.489Z,18.72
2018-04-29T19:32:46.317Z,18.67
2018-04-29T19:35:14.939Z,18.66
2018-04-29T19:37:42.509Z,18.62
2018-04-29T19:40:10.145Z,18.68
2018-04-29T19:42:38.595Z,18.66
2018-04-29T19:45:06.315Z,18.61
2018-04-29T19:47:34.012Z,18.59
2018-04-29T19:50:01.734Z,18.56
2018-04-29T19:52:29.681Z,18.50
2018-04-29T19:54:57.306Z,18.50
2018-04-29T19:57:24.873Z,18.50
2018-04-29T19:59:52.722Z,18.49
2018-04-29T20:02:20.543Z,18.47
2018-04-29T20:04:48.253Z,18.45
2018-04-29T20:07:16.085Z,18.45
2018-04-29T20:09:43.641Z,18.40
2018-04-29T20:12:11.493Z,18.32
2018-04-29T20:14:39.100Z,18.30
2018-04-29T20:17:06.688Z,18.23
2018-04-29T20:19:34.302Z,18.23
2018-04-29T20:22:01.891Z,18.20
2018-04-29T20:24:29.569Z,18.15
2018-04-29T20:26:57.226Z,18.12
2018-04-29T20:29:24.939Z,18.05
2018-04-29T20:31:52.528Z,18.03
2018-04-29T20:34:20.084Z,17.98
2018-04-29T20:36:47.901Z,17.96
2018-04-29T20:39:15.529Z,17.85
2018-04-29T20:41:43.334Z,17.85
2018-04-29T20:44:10.903Z,17.85
2018-04-29T20:46:38.490Z,17.80
2018-04-29T20:49:06.192Z,17.68
2018-04-29T20:51:33.880Z,17.51
2018-04-29T20:54:01.422Z,17.54
2018-04-29T20:56:29.060Z,17.55
2018-04-29T20:58:56.762Z,17.56
2018-04-29T21:01:24.519Z,17.53
2018-04-29T21:03:52.132Z,17.58
2018-04-29T21:06:19.723Z,17.63
2018-04-29T21:08:47.376Z,17.65
2018-04-29T21:11:14.945Z,17.68
2018-04-29T21:13:42.654Z,17.65
2018-04-29T21:16:11.190Z,17.62
2018-04-29T21:18:38.768Z,17.52
2018-04-29T21:21:06.361Z,17.60
2018-04-29T21:23:33.921Z,17.61
2018-04-29T21:26:01.757Z,17.57
2018-04-29T21:28:29.352Z,17.57
2018-04-29T21:30:56.911Z,17.54
2018-04-29T21:33:24.486Z,17.54
2018-04-29T21:35:52.065Z,17.51
2018-04-29T21:38:19.672Z,17.49
2018-04-29T21:40:47.260Z,17.53
2018-04-29T21:43:14.876Z,17.55
2018-04-29T21:45:42.556Z,17.49
2018-04-29T21:48:10.249Z,17.45
2018-04-29T21:50:37.914Z,17.45
2018-04-29T21:53:05.485Z,17.46
2018-04-29T21:55:33.377Z,17.51
2018-04-29T21:58:01.112Z,17.50
2018-04-29T22:00:28.690Z,17.54
2018-04-29T22:02:56.344Z,17.60
2018-04-29T22:05:23.923Z,17.59
2018-04-29T22:07:51.488Z,17.52
2018-04-29T22:10:19.201Z,17.53
2018-04-29T22:12:46.883Z,17.54
2018-04-29T22:15:14.444Z,17.48
2018-04-29T22:17:42.014Z,17.59
2018-04-29T22:20:09.576Z,17.55
2018-04-29T22:22:37.145Z,17.55
2018-04-29T22:25:04.705Z,17.49
2018-04-29T22:27:32.284Z,17.48
2018-04-29T22:30:00.029Z,17.45
2018-04-29T22:32:27.644Z,17.42
2018-04-29T22:34:55.287Z,17.38
2018-04-29T22:37:22.862Z,17.40
2018-04-29T22:39:50.416Z,17.37
2018-04-29T22:42:18.025Z,17.38
2018-04-29T22:44:45.714Z,17.37
2018-04-29T22:47:13.476Z,17.40
2018-04-29T22:49:41.072Z,17.24
2018-04-29T22:52:08.676Z,17.24
2018-04-29T22:54:36.272Z,17.24
2018-04-29T22:57:04.125Z,17.17
2018-04-29T22:59:31.693Z,17.15
2018-04-29T23:01:59.245Z,17.15
2018-04-29T23:04:26.874Z,17.03
2018-04-29T23:06:54.698Z,17.10
2018-04-29T23:09:22.284Z,17.10
2018-04-29T23:11:49.945Z,17.07
2018-04-29T23:14:17.550Z,17.02
2018-04-29T23:16:45.173Z,17.02
2018-04-29T23:19:12.733Z,17.01
2018-04-29T23:21:40.422Z,16.94
2018-04-29T23:24:07.969Z,16.94
2018-04-29T23:26:35.641Z,16.93
2018-04-29T23:29:03.255Z,16.91
2018-04-29T23:31:30.978Z,16.83
2018-04-29T23:33:58.712Z,16.65
2018-04-29T23:36:26.293Z,16.84
2018-04-29T23:38:53.871Z,16.79
2018-04-29T23:41:21.626Z,16.80
2018-04-29T23:43:49.397Z,16.79
2018-04-29T23:46:16.957Z,16.76
2018-04-29T23:48:44.684Z,16.72
2018-04-29T23:51:12.264Z,16.74
2018-04-29T23:53:39.967Z,16.73
2018-04-29T23:56:07.591Z,16.68
2018-04-29T23:58:35.178Z,16.65
